createdAt,value
2019-06-15T00:02:06.442Z,9.37
2019-06-15T00:04:36.763Z,8.63
2019-06-15T00:07:07.123Z,11.27
2019-06-15T00:09:37.436Z,10.70
2019-06-15T00:12:07.795Z,10.13
2019-06-15T00:14:38.164Z,9.73
2019-06-15T00:17:08.522Z,11.00
2019-06-15T00:19:38.848Z,11.03
2019-06-15T00:22:09.187Z,8.80
2019-06-15T00:24:39.516Z,7.53
2019-06-15T00:27:09.860Z,12.10
2019-06-15T00:29:40.175Z,9.43
2019-06-15T00:32:10.611Z,8.40
2019-06-15T00:34:42.586Z,8.77
2019-06-15T00:37:12.965Z,9.20
2019-06-15T00:39:43.303Z,10.80
2019-06-15T00:42:13.623Z,9.50
2019-06-15T00:44:43.977Z,9.47
2019-06-15T00:47:14.416Z,10.87
2019-06-15T00:49:44.748Z,9.40
2019-06-15T00:52:15.126Z,10.33
2019-06-15T00:54:50.409Z,9.83
2019-06-15T00:57:17.512Z,14.10
2019-06-15T00:59:47.993Z,12.53
2019-06-15T01:02:18.347Z,11.13
2019-06-15T01:04:48.678Z,11.33
2019-06-15T01:07:19.030Z,13.43
2019-06-15T01:09:49.332Z,11.57
2019-06-15T01:12:19.702Z,13.10
2019-06-15T01:14:50.024Z,12.53
2019-06-15T01:17:20.463Z,15.30
2019-06-15T01:19:50.787Z,12.00
2019-06-15T01:22:21.154Z,14.07
2019-06-15T01:25:04.880Z,14.90
2019-06-15T01:27:23.649Z,12.60
2019-06-15T01:29:54.063Z,11.77
2019-06-15T01:32:24.406Z,10.70
2019-06-15T01:34:54.765Z,10.87
2019-06-15T01:37:25.119Z,10.57
2019-06-15T01:39:55.544Z,14.40
2019-06-15T01:42:25.970Z,9.47
2019-06-15T01:44:56.279Z,10.73
2019-06-15T01:47:26.623Z,10.90
2019-06-15T01:49:56.933Z,11.33
2019-06-15T01:52:27.277Z,10.33
2019-06-15T01:54:57.602Z,10.77
2019-06-15T01:57:27.945Z,10.30
2019-06-15T01:59:58.326Z,14.97
2019-06-15T02:02:28.677Z,11.27
2019-06-15T02:04:59.022Z,11.87
2019-06-15T02:07:29.346Z,12.50
2019-06-15T02:09:59.676Z,16.00
2019-06-15T02:12:30.024Z,13.10
2019-06-15T02:15:00.338Z,12.63
2019-06-15T02:17:30.688Z,10.33
2019-06-15T02:20:01.335Z,12.77
2019-06-15T02:22:32.067Z,12.70
2019-06-15T02:25:02.394Z,11.00
2019-06-15T02:27:32.755Z,12.10
2019-06-15T02:30:03.095Z,14.93
2019-06-15T02:32:33.439Z,11.83
2019-06-15T02:35:04.377Z,13.93
2019-06-15T02:37:34.745Z,9.90
2019-06-15T02:40:06.089Z,11.13
2019-06-15T02:42:36.429Z,12.27
2019-06-15T02:45:07.082Z,11.60
2019-06-15T02:47:37.441Z,14.43
2019-06-15T02:50:07.998Z,12.67
2019-06-15T02:52:38.449Z,10.50
2019-06-15T02:55:08.861Z,13.00
2019-06-15T02:57:40.181Z,12.87
2019-06-15T03:00:12.508Z,11.03
2019-06-15T03:02:42.867Z,13.43
2019-06-15T03:05:13.306Z,10.97
2019-06-15T03:07:43.744Z,14.70
2019-06-15T03:10:14.174Z,10.80
2019-06-15T03:12:44.595Z,12.63
2019-06-15T03:15:15.024Z,12.73
2019-06-15T03:17:45.377Z,11.57
2019-06-15T03:20:15.820Z,16.70
2019-06-15T03:22:46.198Z,12.07
2019-06-15T03:25:16.523Z,14.37
2019-06-15T03:27:46.868Z,16.10
2019-06-15T03:30:18.565Z,12.40
2019-06-15T03:32:48.929Z,15.60
2019-06-15T03:35:19.460Z,13.17
2019-06-15T03:37:49.860Z,17.00
2019-06-15T03:40:20.175Z,16.37
2019-06-15T03:42:50.530Z,13.47
2019-06-15T03:45:20.843Z,17.67
2019-06-15T03:47:51.210Z,15.30
2019-06-15T03:50:21.606Z,14.07
2019-06-15T03:52:53.031Z,13.60
2019-06-15T03:55:23.354Z,12.87
2019-06-15T03:57:53.703Z,18.43
2019-06-15T04:00:47.481Z,13.63
2019-06-15T04:03:18.029Z,16.80
2019-06-15T04:05:48.354Z,17.07
2019-06-15T04:08:18.791Z,17.00
2019-06-15T04:10:49.127Z,16.40
2019-06-15T04:13:19.513Z,17.43
2019-06-15T04:15:49.825Z,19.27
2019-06-15T04:18:20.207Z,19.53
2019-06-15T04:20:50.539Z,16.30
2019-06-15T04:23:20.908Z,18.07
2019-06-15T04:25:51.248Z,15.20
2019-06-15T04:28:21.603Z,16.00
2019-06-15T04:30:51.922Z,17.17
2019-06-15T04:33:22.268Z,17.50
2019-06-15T04:35:52.614Z,15.57
2019-06-15T04:38:23.031Z,13.73
2019-06-15T04:40:53.387Z,16.93
2019-06-15T04:43:23.740Z,14.70
2019-06-15T04:45:54.121Z,14.70
2019-06-15T04:48:24.493Z,16.03
2019-06-15T04:50:54.845Z,15.57
2019-06-15T04:53:25.221Z,15.37
2019-06-15T04:55:55.560Z,13.93
2019-06-15T04:58:26.988Z,16.30
2019-06-15T05:00:57.383Z,12.67
2019-06-15T05:03:27.727Z,12.90
2019-06-15T05:05:58.036Z,13.67
2019-06-15T05:08:28.396Z,9.80
2019-06-15T05:10:59.909Z,9.67
2019-06-15T05:13:30.657Z,9.67
2019-06-15T05:16:01.952Z,8.30
2019-06-15T05:18:32.296Z,10.20
2019-06-15T05:21:03.792Z,10.60
2019-06-15T05:23:34.120Z,8.70
2019-06-15T05:26:05.460Z,10.73
2019-06-15T05:28:35.824Z,9.37
2019-06-15T05:31:06.724Z,8.17
2019-06-15T05:33:37.059Z,8.13
2019-06-15T05:36:07.381Z,8.10
2019-06-15T05:38:37.751Z,11.97
2019-06-15T05:41:08.063Z,11.73
2019-06-15T05:43:38.451Z,9.37
2019-06-15T05:46:08.774Z,8.47
2019-06-15T05:48:39.141Z,7.67
2019-06-15T05:51:09.486Z,12.30
2019-06-15T05:53:39.834Z,8.83
2019-06-15T05:56:10.160Z,10.90
2019-06-15T05:58:40.619Z,8.27
2019-06-15T06:01:10.942Z,7.50
2019-06-15T06:03:41.334Z,6.73
2019-06-15T06:06:11.728Z,7.60
2019-06-15T06:08:42.086Z,9.57
2019-06-15T06:11:12.408Z,8.30
2019-06-15T06:13:42.735Z,7.07
2019-06-15T06:16:13.098Z,7.63
2019-06-15T06:18:43.464Z,12.60
2019-06-15T06:21:13.780Z,6.33
2019-06-15T06:23:44.135Z,7.13
2019-06-15T06:26:14.454Z,9.23
2019-06-15T06:28:56.458Z,7.23
2019-06-15T06:31:16.785Z,5.17
2019-06-15T06:33:47.220Z,6.63
2019-06-15T06:36:17.503Z,4.67
2019-06-15T06:38:49.156Z,7.80
2019-06-15T06:41:19.497Z,7.63
2019-06-15T06:43:49.912Z,6.03
2019-06-15T06:46:20.497Z,6.00
2019-06-15T06:48:51.830Z,4.77
2019-06-15T06:51:22.147Z,4.40
2019-06-15T06:53:52.490Z,6.23
2019-06-15T06:56:22.852Z,7.53
2019-06-15T06:58:55.591Z,4.43
2019-06-15T07:01:25.923Z,5.53
2019-06-15T07:03:56.255Z,5.47
2019-06-15T07:06:26.573Z,4.70
2019-06-15T07:08:58.002Z,7.03
2019-06-15T07:11:28.296Z,5.23
2019-06-15T07:13:58.648Z,6.43
2019-06-15T07:16:29.042Z,9.20
2019-06-15T07:18:59.391Z,6.60
2019-06-15T07:21:29.777Z,8.27
2019-06-15T07:24:00.100Z,5.43
2019-06-15T07:26:30.532Z,3.57
2019-06-15T07:29:00.862Z,6.33
2019-06-15T07:31:31.175Z,4.97
2019-06-15T07:34:02.485Z,3.87
2019-06-15T07:36:32.798Z,6.40
2019-06-15T07:39:03.142Z,4.80
2019-06-15T07:41:34.575Z,6.30
2019-06-15T07:44:04.879Z,4.80
2019-06-15T07:46:35.202Z,5.67
2019-06-15T07:49:05.553Z,3.43
2019-06-15T07:51:35.829Z,4.63
2019-06-15T07:54:06.199Z,6.77
2019-06-15T07:56:36.515Z,2.70
2019-06-15T07:59:06.910Z,5.90
2019-06-15T08:01:37.248Z,3.33
2019-06-15T08:04:07.574Z,6.10
2019-06-15T08:06:37.961Z,3.37
2019-06-15T08:09:08.312Z,3.83
2019-06-15T08:11:38.638Z,2.80
2019-06-15T08:14:08.980Z,2.50
2019-06-15T08:16:39.309Z,2.17
2019-06-15T08:19:09.642Z,3.33
2019-06-15T08:21:39.951Z,2.60
2019-06-15T08:24:10.303Z,3.90
2019-06-15T08:26:41.205Z,3.30
2019-06-15T08:29:11.546Z,3.20
2019-06-15T08:31:41.862Z,4.03
2019-06-15T08:34:13.289Z,3.47
2019-06-15T08:36:43.606Z,5.37
2019-06-15T08:39:14.026Z,4.47
2019-06-15T08:41:44.411Z,4.00
2019-06-15T08:44:14.748Z,4.10
2019-06-15T08:46:45.075Z,2.90
2019-06-15T08:49:15.431Z,2.53
2019-06-15T08:51:45.747Z,3.90
2019-06-15T08:54:16.098Z,3.57
2019-06-15T08:56:46.409Z,3.70
2019-06-15T08:59:16.762Z,2.00
2019-06-15T09:01:47.089Z,2.63
2019-06-15T09:04:17.457Z,2.73
2019-06-15T09:06:47.840Z,3.57
2019-06-15T09:09:18.164Z,3.63
2019-06-15T09:11:48.478Z,1.83
2019-06-15T09:14:18.857Z,4.03
2019-06-15T09:16:49.165Z,2.40
2019-06-15T09:19:20.433Z,1.70
2019-06-15T09:21:50.743Z,4.73
2019-06-15T09:24:21.077Z,2.93
2019-06-15T09:26:51.394Z,3.80
2019-06-15T09:29:22.806Z,2.20
2019-06-15T09:31:53.107Z,3.70
2019-06-15T09:34:23.455Z,2.73
2019-06-15T09:36:53.775Z,2.23
2019-06-15T09:39:24.128Z,2.57
2019-06-15T09:41:54.439Z,3.27
2019-06-15T09:44:24.877Z,2.03
2019-06-15T09:46:55.283Z,3.13
2019-06-15T09:49:25.631Z,1.90
2019-06-15T09:51:55.923Z,2.37
2019-06-15T09:54:28.135Z,3.57
2019-06-15T09:56:58.208Z,2.63
2019-06-15T09:59:28.555Z,1.77
2019-06-15T10:01:58.865Z,2.80
2019-06-15T10:04:29.211Z,2.40
2019-06-15T10:06:59.528Z,3.43
2019-06-15T10:09:29.856Z,2.10
2019-06-15T10:12:00.224Z,1.83
2019-06-15T10:14:31.643Z,1.60
2019-06-15T10:17:02.010Z,1.50
2019-06-15T10:19:32.358Z,2.27
2019-06-15T10:22:02.692Z,3.33
2019-06-15T10:24:33.048Z,3.27
2019-06-15T10:27:03.427Z,3.97
2019-06-15T10:29:42.107Z,1.60
2019-06-15T10:32:05.800Z,1.80
2019-06-15T10:34:36.155Z,3.40
2019-06-15T10:37:25.592Z,1.80
2019-06-15T10:39:56.993Z,2.00
2019-06-15T10:42:28.271Z,1.73
2019-06-15T10:44:58.660Z,2.93
2019-06-15T10:47:28.982Z,2.27
2019-06-15T10:50:00.485Z,1.80
2019-06-15T10:52:31.677Z,1.70
2019-06-15T10:55:02.001Z,1.97
2019-06-15T10:57:32.391Z,1.90
2019-06-15T11:00:02.762Z,1.70
2019-06-15T11:02:34.261Z,3.53
2019-06-15T11:05:04.763Z,2.50
2019-06-15T11:07:35.089Z,2.00
2019-06-15T11:10:06.511Z,1.70
2019-06-15T11:12:45.695Z,2.50
2019-06-15T11:15:09.215Z,1.60
2019-06-15T11:17:39.525Z,1.93
2019-06-15T11:20:10.282Z,2.83
2019-06-15T11:22:40.599Z,1.60
2019-06-15T11:25:11.045Z,1.60
2019-06-15T11:27:41.392Z,1.83
2019-06-15T11:30:14.026Z,1.65
2019-06-15T11:32:44.171Z,2.60
2019-06-15T11:35:14.647Z,1.35
2019-06-15T11:37:44.972Z,1.60
2019-06-15T11:40:15.558Z,1.50
2019-06-15T11:42:45.994Z,1.70
2019-06-15T11:45:16.329Z,1.82
2019-06-15T11:47:46.683Z,2.17
2019-06-15T11:50:17.075Z,1.72
2019-06-15T11:52:47.452Z,1.92
2019-06-15T11:55:19.973Z,2.65
2019-06-15T11:57:49.719Z,2.00
2019-06-15T12:00:31.154Z,2.25
2019-06-15T12:02:55.542Z,1.92
2019-06-15T12:05:26.007Z,1.60
2019-06-15T12:07:56.339Z,1.80
2019-06-15T12:10:26.774Z,2.90
2019-06-15T12:12:57.176Z,4.80
2019-06-15T12:15:27.536Z,1.70
2019-06-15T12:17:57.937Z,2.60
2019-06-15T12:20:28.342Z,2.00
2019-06-15T12:22:58.723Z,1.77
2019-06-15T12:25:29.096Z,2.30
2019-06-15T12:27:59.426Z,2.33
2019-06-15T12:30:46.863Z,2.55
2019-06-15T12:33:11.923Z,1.80
2019-06-15T12:35:42.313Z,2.65
2019-06-15T12:38:12.653Z,3.90
2019-06-15T12:40:43.057Z,2.98
2019-06-15T12:43:13.443Z,4.90
2019-06-15T12:45:43.926Z,3.77
2019-06-15T12:48:14.262Z,2.62
2019-06-15T12:50:44.662Z,1.87
2019-06-15T12:53:15.007Z,1.80
2019-06-15T12:55:45.383Z,1.60
2019-06-15T12:58:15.766Z,1.62
2019-06-15T13:00:58.909Z,1.70
2019-06-15T13:03:18.060Z,1.70
2019-06-15T13:05:48.418Z,3.10
2019-06-15T13:08:18.778Z,1.80
2019-06-15T13:10:49.155Z,1.72
2019-06-15T13:13:20.347Z,1.82
2019-06-15T13:15:51.042Z,1.94
2019-06-15T13:18:21.965Z,1.70
2019-06-15T13:20:52.342Z,1.87
2019-06-15T13:23:22.677Z,1.75
2019-06-15T13:25:53.047Z,1.62
2019-06-15T13:28:23.439Z,1.50
2019-06-15T13:30:53.807Z,1.85
2019-06-15T13:33:25.180Z,1.85
2019-06-15T13:35:55.554Z,1.90
2019-06-15T13:38:25.877Z,1.77
2019-06-15T13:40:56.279Z,1.75
2019-06-15T13:43:26.558Z,1.62
2019-06-15T13:45:56.936Z,1.80
2019-06-15T13:48:27.344Z,1.98
2019-06-15T13:50:57.743Z,1.70
2019-06-15T13:53:28.066Z,1.75
2019-06-15T13:55:58.426Z,2.33
2019-06-15T13:58:28.756Z,1.62
2019-06-15T14:01:00.741Z,1.60
2019-06-15T14:03:31.146Z,2.20
2019-06-15T14:06:01.590Z,1.60
2019-06-15T14:08:31.975Z,2.00
2019-06-15T14:11:02.450Z,1.85
2019-06-15T14:13:32.790Z,2.05
2019-06-15T14:16:03.148Z,1.60
2019-06-15T14:18:33.469Z,2.22
2019-06-15T14:21:04.032Z,2.50
2019-06-15T14:23:34.590Z,1.70
2019-06-15T14:26:05.003Z,1.92
2019-06-15T14:28:35.304Z,1.67
2019-06-15T14:31:06.067Z,1.67
2019-06-15T14:33:36.414Z,1.40
2019-06-15T14:36:06.747Z,1.50
2019-06-15T14:38:37.074Z,1.77
2019-06-15T14:41:07.429Z,2.33
2019-06-15T14:43:37.806Z,1.92
2019-06-15T14:46:08.154Z,1.90
2019-06-15T14:48:38.498Z,3.45
2019-06-15T14:51:08.848Z,1.65
2019-06-15T14:53:41.767Z,1.60
2019-06-15T14:56:11.175Z,1.40
2019-06-15T14:58:41.536Z,2.90
2019-06-15T15:01:11.960Z,1.30
2019-06-15T15:03:42.391Z,2.02
2019-06-15T15:06:12.703Z,1.72
2019-06-15T15:08:43.112Z,1.80
2019-06-15T15:11:13.540Z,1.60
2019-06-15T15:13:46.961Z,2.00
2019-06-15T15:16:17.825Z,1.65
2019-06-15T15:18:48.401Z,1.95
2019-06-15T15:21:19.172Z,2.27
2019-06-15T15:23:49.545Z,2.00
2019-06-15T15:26:19.917Z,1.30
2019-06-15T15:28:51.151Z,3.10
2019-06-15T15:31:21.548Z,1.50
2019-06-15T15:33:51.988Z,2.35
2019-06-15T15:36:22.431Z,1.52
2019-06-15T15:38:52.775Z,2.30
2019-06-15T15:41:23.172Z,1.55
2019-06-15T15:43:53.540Z,1.65
2019-06-15T15:46:23.882Z,1.65
2019-06-15T15:48:56.804Z,1.55
2019-06-15T15:51:26.283Z,1.47
2019-06-15T15:53:56.796Z,2.83
2019-06-15T15:56:27.349Z,2.58
2019-06-15T15:58:58.848Z,1.47
2019-06-15T16:01:29.183Z,1.60
2019-06-15T16:03:59.550Z,3.33
2019-06-15T16:06:29.912Z,1.60
2019-06-15T16:09:00.270Z,1.50
2019-06-15T16:11:30.802Z,1.62
2019-06-15T16:14:01.148Z,1.65
2019-06-15T16:16:31.466Z,1.90
2019-06-15T16:19:01.828Z,1.92
2019-06-15T16:21:33.219Z,1.62
2019-06-15T16:24:03.608Z,1.70
2019-06-15T16:26:33.890Z,2.55
2019-06-15T16:29:06.708Z,1.90
2019-06-15T16:31:37.404Z,2.05
2019-06-15T16:34:07.960Z,1.72
2019-06-15T16:36:38.290Z,2.08
2019-06-15T16:39:09.037Z,2.55
2019-06-15T16:41:39.743Z,1.80
2019-06-15T16:44:10.119Z,2.00
2019-06-15T16:46:40.466Z,1.85
2019-06-15T16:49:10.804Z,1.90
2019-06-15T16:51:41.273Z,1.85
2019-06-15T16:54:11.615Z,3.25
2019-06-15T16:56:41.963Z,3.98
2019-06-15T16:59:12.479Z,4.15
2019-06-15T17:01:42.861Z,3.80
2019-06-15T17:04:13.320Z,2.20
2019-06-15T17:06:45.878Z,5.62
2019-06-15T17:09:16.892Z,4.00
2019-06-15T17:11:47.395Z,2.87
2019-06-15T17:14:17.828Z,2.83
2019-06-15T17:16:48.162Z,2.45
2019-06-15T17:19:18.602Z,2.30
2019-06-15T17:21:48.961Z,2.25
2019-06-15T17:24:19.330Z,3.37
2019-06-15T17:26:49.663Z,3.02
2019-06-15T17:29:20.046Z,3.22
2019-06-15T17:31:50.365Z,2.47
2019-06-15T17:34:20.812Z,4.00
2019-06-15T17:36:51.153Z,2.80
2019-06-15T17:39:21.542Z,2.50
2019-06-15T17:41:51.843Z,4.90
2019-06-15T17:44:22.253Z,2.60
2019-06-15T17:46:52.648Z,5.03
2019-06-15T17:49:22.995Z,3.40
2019-06-15T17:51:53.339Z,2.83
2019-06-15T17:54:23.723Z,5.27
2019-06-15T17:56:54.013Z,3.43
2019-06-15T17:59:26.916Z,2.70
2019-06-15T18:01:57.220Z,4.00
2019-06-15T18:04:27.647Z,3.40
2019-06-15T18:06:57.976Z,6.10
2019-06-15T18:09:28.325Z,3.50
2019-06-15T18:11:58.639Z,4.10
2019-06-15T18:14:28.983Z,2.67
2019-06-15T18:16:59.353Z,2.47
2019-06-15T18:19:29.732Z,3.57
2019-06-15T18:22:00.036Z,2.70
2019-06-15T18:24:30.393Z,3.10
2019-06-15T18:27:00.761Z,4.90
2019-06-15T18:29:31.127Z,3.63
2019-06-15T18:32:01.714Z,3.00
2019-06-15T18:34:33.060Z,3.20
2019-06-15T18:37:03.381Z,2.87
2019-06-15T18:39:33.742Z,4.17
2019-06-15T18:42:04.042Z,4.07
2019-06-15T18:44:36.527Z,3.63
2019-06-15T18:47:07.133Z,3.10
2019-06-15T18:49:37.611Z,3.43
2019-06-15T18:52:09.565Z,5.53
2019-06-15T18:54:42.386Z,4.03
2019-06-15T18:57:12.618Z,3.50
2019-06-15T18:59:43.035Z,3.90
2019-06-15T19:02:16.162Z,5.13
2019-06-15T19:04:49.511Z,4.17
2019-06-15T19:07:18.697Z,3.90
2019-06-15T19:09:49.086Z,3.63
2019-06-15T19:12:20.969Z,5.30
2019-06-15T19:14:51.428Z,3.43
2019-06-15T19:17:21.819Z,5.10
2019-06-15T19:19:52.203Z,3.60
2019-06-15T19:22:22.527Z,4.93
2019-06-15T19:25:03.994Z,4.20
2019-06-15T19:27:25.974Z,4.03
2019-06-15T19:29:58.720Z,4.33
2019-06-15T19:32:30.541Z,5.50
2019-06-15T19:35:09.992Z,4.47
2019-06-15T19:37:40.260Z,3.40
2019-06-15T19:40:13.249Z,4.87
2019-06-15T19:42:46.797Z,4.87
2019-06-15T19:45:26.562Z,4.07
2019-06-15T19:48:06.686Z,3.63
2019-06-15T19:50:38.997Z,4.53
2019-06-15T19:53:09.595Z,4.20
2019-06-15T19:55:40.025Z,5.60
2019-06-15T19:58:10.383Z,5.87
2019-06-15T20:00:43.273Z,3.83
2019-06-15T20:03:16.166Z,3.70
2019-06-15T20:05:47.026Z,5.13
2019-06-15T20:08:19.489Z,4.03
2019-06-15T20:10:49.832Z,4.03
2019-06-15T20:13:20.188Z,4.50
2019-06-15T20:15:50.554Z,3.43
2019-06-15T20:18:20.886Z,4.00
2019-06-15T20:20:51.255Z,5.73
2019-06-15T20:23:21.614Z,6.63
2019-06-15T20:25:51.949Z,6.00
2019-06-15T20:28:22.309Z,5.47
2019-06-15T20:30:52.722Z,8.47
2019-06-15T20:33:23.008Z,5.67
2019-06-15T20:35:53.383Z,4.57
2019-06-15T20:38:23.745Z,5.87
2019-06-15T20:40:56.397Z,7.00
2019-06-15T20:43:27.409Z,6.20
2019-06-15T20:45:58.014Z,4.77
2019-06-15T20:48:28.410Z,4.60
2019-06-15T20:50:58.763Z,4.67
2019-06-15T20:53:29.167Z,5.60
2019-06-15T20:55:59.604Z,5.57
2019-06-15T20:58:29.903Z,5.70
2019-06-15T21:01:00.279Z,5.50
2019-06-15T21:03:30.607Z,7.00
2019-06-15T21:06:00.947Z,7.30
2019-06-15T21:08:31.301Z,7.90
2019-06-15T21:11:01.662Z,6.33
2019-06-15T21:13:32.071Z,7.67
2019-06-15T21:16:02.445Z,6.73
2019-06-15T21:18:34.012Z,6.93
2019-06-15T21:21:06.846Z,6.63
2019-06-15T21:23:37.562Z,7.30
2019-06-15T21:26:07.931Z,8.97
2019-06-15T21:28:38.358Z,6.40
2019-06-15T21:31:08.712Z,6.77
2019-06-15T21:33:39.051Z,7.27
2019-06-15T21:36:09.541Z,7.90
2019-06-15T21:38:39.877Z,5.17
2019-06-15T21:41:10.251Z,7.40
2019-06-15T21:43:40.559Z,6.97
2019-06-15T21:46:10.926Z,5.57
2019-06-15T21:48:41.268Z,8.30
2019-06-15T21:51:11.620Z,9.63
2019-06-15T21:53:41.970Z,11.40
2019-06-15T21:56:12.308Z,9.20
2019-06-15T21:58:42.646Z,7.57
2019-06-15T22:01:33.982Z,11.40
2019-06-15T22:04:06.604Z,9.07
2019-06-15T22:06:37.607Z,10.50
2019-06-15T22:09:13.297Z,7.63
2019-06-15T22:11:46.947Z,10.73
2019-06-15T22:14:17.774Z,7.70
2019-06-15T22:16:48.290Z,9.00
2019-06-15T22:19:18.720Z,7.73
2019-06-15T22:21:49.085Z,29.40
2019-06-15T22:24:26.773Z,10.87
2019-06-15T22:26:57.427Z,9.60
2019-06-15T22:29:28.172Z,9.43
2019-06-15T22:32:06.662Z,9.43
2019-06-15T22:34:32.709Z,9.03
2019-06-15T22:37:03.282Z,8.97
2019-06-15T22:39:34.075Z,11.27
2019-06-15T22:42:06.696Z,18.10
2019-06-15T22:44:37.226Z,12.27
2019-06-15T22:47:08.018Z,10.90
2019-06-15T22:49:38.775Z,12.90
2019-06-15T22:52:11.731Z,13.30
2019-06-15T22:54:42.161Z,13.27
2019-06-15T22:57:12.624Z,10.57
2019-06-15T22:59:43.063Z,16.53
2019-06-15T23:02:13.659Z,13.30
2019-06-15T23:04:44.048Z,15.27
2019-06-15T23:07:16.113Z,13.07
2019-06-15T23:09:46.902Z,13.77
2019-06-15T23:12:17.339Z,13.57
2019-06-15T23:14:47.988Z,12.20
2019-06-15T23:17:18.350Z,12.40
2019-06-15T23:19:48.847Z,14.63
2019-06-15T23:22:19.199Z,10.33
2019-06-15T23:24:49.603Z,11.00
2019-06-15T23:27:19.938Z,14.00
2019-06-15T23:29:50.341Z,12.73
2019-06-15T23:32:21.001Z,10.23
2019-06-15T23:34:51.359Z,9.43
2019-06-15T23:37:22.502Z,10.30
2019-06-15T23:40:10.909Z,11.13
2019-06-15T23:42:41.247Z,10.43
2019-06-15T23:45:11.712Z,11.87
2019-06-15T23:47:42.011Z,13.57
2019-06-15T23:50:12.824Z,14.87
2019-06-15T23:52:43.250Z,11.93
2019-06-15T23:55:15.508Z,13.47
2019-06-15T23:57:46.553Z,13.70
